Karachi, Pakistan
Current Conditions -  °F | °C
As of 12:55 PM on Friday 31 Oct 2014 (Local Time) from OPKC Reporting Station
Sand / Dust Storm Sand / Dust Storm  
Wind Chill: 90°   Ceiling: 10000
Heat Index: 90°   Visibility: 1.8mi
Dew Point: 59°   Wind: 22mph
Humidity: 36%   Direction: 170°S
Pressure: 29.91"   Gusts: NA
Location:  24.86°N, 67.01°E
Report Text: OPKC 310755Z 17019KT 3000 BLDU SCT030 BKN100 32/15 Q1013 TEMPONELY 20G25KT ORMORE
Loading
Personal Weather Stations






























Interactive Weather Map
Tropical Storm Tracking
New forecast layout! Learn more

10-Day Weather Forecast

Advertisements
Track Severe Weather on mobile